Time;durP1;ratioP1;P1;durP2;ratioP2;P2;SDS_P1;SDS_P2;PMS_P1;PMS_P2;Temp;Humidity;BMP_temperature;BMP_pressure;BME280_temperature;BME280_humidity;BME280_pressure;Samples;Min_cycle;Max_cycle;Signal;HPM_P1;HPM_P2
2022/04/27 00:00:13;;;;;;;11.47;6.47;;;;;;;-150.27;100.00;61272.81;5248265;28;20142;-76
2022/04/27 00:02:44;;;;;;;8.27;6.25;;;;;;;-150.27;100.00;61272.81;5249063;28;20064;-76
2022/04/27 00:05:16;;;;;;;10.67;5.80;;;;;;;-150.27;100.00;61272.81;5231347;28;20036;-75
2022/04/27 00:07:47;;;;;;;11.43;6.77;;;;;;;-150.27;100.00;61272.81;5230615;28;20048;-76
2022/04/27 00:10:19;;;;;;;9.60;5.60;;;;;;;-150.27;100.00;61272.81;5249705;28;20095;-76
2022/04/27 00:12:51;;;;;;;9.60;5.70;;;;;;;-150.27;100.00;61272.81;5248534;28;20017;-76
2022/04/27 00:15:25;;;;;;;11.23;6.60;;;;;;;-150.27;100.00;61272.81;5247157;28;20029;-76
2022/04/27 00:17:56;;;;;;;11.52;6.47;;;;;;;-150.27;100.00;61272.81;5248763;28;20029;-76
2022/04/27 00:20:27;;;;;;;9.37;6.20;;;;;;;-150.27;100.00;61272.81;5249496;28;20036;-76
2022/04/27 00:22:59;;;;;;;9.27;5.80;;;;;;;-150.27;100.00;61272.81;5248935;28;20021;-76
2022/04/27 00:25:30;;;;;;;10.77;6.50;;;;;;;-150.27;100.00;61272.81;5230455;28;20024;-76
2022/04/27 00:28:01;;;;;;;9.00;6.80;;;;;;;-150.27;100.00;61272.81;5248826;28;20087;-76
2022/04/27 00:30:33;;;;;;;8.87;6.77;;;;;;;-150.27;100.00;61272.81;5247820;28;20029;-76
2022/04/27 00:33:04;;;;;;;12.77;6.83;;;;;;;-150.27;100.00;61272.81;5248557;28;20020;-75
2022/04/27 00:35:37;;;;;;;12.30;6.60;;;;;;;-150.27;100.00;61272.81;5248666;28;20074;-76
2022/04/27 00:38:08;;;;;;;8.47;6.40;;;;;;;-150.27;100.00;61272.81;5247584;28;20021;-76
2022/04/27 00:40:39;;;;;;;11.77;6.87;;;;;;;-150.27;100.00;61272.81;5248852;28;20473;-76
2022/04/27 00:43:14;;;;;;;12.00;7.93;;;;;;;-150.27;100.00;61272.81;5248000;28;20033;-76
2022/04/27 00:45:46;;;;;;;9.23;6.60;;;;;;;-150.27;100.00;61272.81;5247502;28;20023;-75
2022/04/27 00:48:17;;;;;;;13.50;7.53;;;;;;;-150.27;100.00;61272.81;5230665;28;20026;-76
2022/04/27 00:50:48;;;;;;;15.27;7.13;;;;;;;-150.27;100.00;61272.81;5230180;28;20094;-76
2022/04/27 00:53:19;;;;;;;9.60;6.80;;;;;;;-150.27;100.00;61272.81;5247860;28;20051;-76
2022/04/27 00:55:51;;;;;;;12.20;6.77;;;;;;;-150.27;100.00;61272.81;5248394;28;20024;-76
2022/04/27 00:58:24;;;;;;;9.63;6.60;;;;;;;-150.27;100.00;61272.81;5248724;28;20128;-75
2022/04/27 01:00:55;;;;;;;10.77;7.60;;;;;;;-150.27;100.00;61272.81;5246573;28;20025;-76
2022/04/27 01:03:26;;;;;;;11.83;7.03;;;;;;;-150.27;100.00;61272.81;5248196;28;20045;-76
2022/04/27 01:05:58;;;;;;;16.37;7.17;;;;;;;-150.27;100.00;61272.81;5246272;28;20051;-76
2022/04/27 01:08:29;;;;;;;9.20;7.23;;;;;;;-150.27;100.00;61272.81;5230281;28;20078;-75
2022/04/27 01:11:02;;;;;;;9.57;6.67;;;;;;;-150.27;100.00;61272.81;5247405;28;20112;-76
2022/04/27 01:13:33;;;;;;;11.03;7.07;;;;;;;-150.27;100.00;61272.81;5248091;28;20029;-76
2022/04/27 01:16:05;;;;;;;9.20;7.13;;;;;;;-150.27;100.00;61272.81;5229078;28;20249;-76
2022/04/27 01:18:36;;;;;;;11.83;6.73;;;;;;;-150.27;100.00;61272.81;5247737;28;20896;-75
2022/04/27 01:21:08;;;;;;;13.73;6.90;;;;;;;-150.27;100.00;61272.81;5229800;28;20150;-76
2022/04/27 01:23:39;;;;;;;11.63;8.00;;;;;;;-150.27;100.00;61272.81;5229669;28;20024;-76
2022/04/27 01:26:10;;;;;;;11.37;7.00;;;;;;;-150.27;100.00;61272.81;5246279;28;20021;-76
2022/04/27 01:28:42;;;;;;;8.33;6.77;;;;;;;-150.27;100.00;61272.81;5247396;28;20590;-76
2022/04/27 01:31:14;;;;;;;10.40;7.20;;;;;;;-150.27;100.00;61272.81;5246976;28;20041;-76
2022/04/27 01:33:46;;;;;;;15.07;8.57;;;;;;;-150.27;100.00;61272.81;5247433;28;20024;-73
2022/04/27 01:36:18;;;;;;;11.03;7.40;;;;;;;-150.27;100.00;61272.81;5229118;28;20031;-76
2022/04/27 01:38:49;;;;;;;12.03;7.50;;;;;;;-150.27;100.00;61272.81;5247381;28;20021;-76
2022/04/27 01:41:21;;;;;;;10.63;7.60;;;;;;;-150.27;100.00;61272.81;5229598;28;20071;-77
2022/04/27 01:43:52;;;;;;;12.27;8.00;;;;;;;-150.27;100.00;61272.81;5247260;28;20135;-77
2022/04/27 01:46:24;;;;;;;10.83;7.40;;;;;;;-150.27;100.00;61272.81;5246322;28;20044;-71
2022/04/27 01:48:56;;;;;;;9.13;6.80;;;;;;;-150.27;100.00;61272.81;5231034;28;20071;-77
2022/04/27 01:54:17;;;;;;;13.93;8.30;;;;;;;-150.27;100.00;61272.81;5237765;28;20112;-77
2022/04/27 01:56:49;;;;;;;13.50;8.43;;;;;;;-150.27;100.00;61272.81;5230281;28;20111;-75
2022/04/27 01:59:21;;;;;;;14.17;7.70;;;;;;;-150.27;100.00;61272.81;5246688;28;20029;-75
2022/04/27 02:01:52;;;;;;;19.03;7.67;;;;;;;-150.27;100.00;61272.81;5247050;28;20059;-75
2022/04/27 02:04:23;;;;;;;9.43;7.43;;;;;;;-150.27;100.00;61272.81;5246885;28;20075;-70
2022/04/27 02:06:55;;;;;;;15.37;8.67;;;;;;;-150.27;100.00;61272.81;5247007;28;20029;-76
2022/04/27 02:09:26;;;;;;;10.70;7.17;;;;;;;-150.27;100.00;61272.81;5228867;28;20041;-77
2022/04/27 02:11:57;;;;;;;14.47;8.07;;;;;;;-150.27;100.00;61272.81;5247272;28;20114;-75
2022/04/27 02:14:28;;;;;;;11.80;8.50;;;;;;;-150.27;100.00;61272.81;5227670;28;20017;-75
2022/04/27 02:17:00;;;;;;;13.23;8.60;;;;;;;-150.27;100.00;61272.81;5247395;28;20025;-76
2022/04/27 02:19:31;;;;;;;14.07;8.90;;;;;;;-150.27;100.00;61272.81;5247411;28;20519;-75
2022/04/27 02:22:02;;;;;;;13.17;9.20;;;;;;;-150.27;100.00;61272.81;5228434;28;20021;-75
2022/04/27 02:24:33;;;;;;;14.20;9.13;;;;;;;-150.27;100.00;61272.81;5247008;28;20032;-76
2022/04/27 02:27:05;;;;;;;15.03;9.73;;;;;;;-150.27;100.00;61272.81;5246747;28;20499;-75
2022/04/27 02:29:36;;;;;;;16.20;9.30;;;;;;;-150.27;100.00;61272.81;5228287;28;20032;-75
2022/04/27 02:32:07;;;;;;;12.20;8.07;;;;;;;-150.27;100.00;61272.81;5228551;28;20063;-76
2022/04/27 02:34:38;;;;;;;12.27;8.73;;;;;;;-150.27;100.00;61272.81;5228791;28;20412;-76
2022/04/27 02:37:10;;;;;;;10.83;8.83;;;;;;;-150.27;100.00;61272.81;5247424;28;20176;-75
2022/04/27 02:39:41;;;;;;;12.23;9.03;;;;;;;-150.27;100.00;61272.81;5246726;28;20040;-74
2022/04/27 02:42:13;;;;;;;12.87;8.23;;;;;;;-150.27;100.00;61272.81;5228699;28;20033;-78
2022/04/27 02:44:44;;;;;;;12.70;9.40;;;;;;;-150.27;100.00;61272.81;5244417;28;20028;-76
2022/04/27 02:47:16;;;;;;;10.87;8.20;;;;;;;-150.27;100.00;61272.81;5246846;28;20055;-78
2022/04/27 02:52:37;;;;;;;11.97;8.60;;;;;;;-150.27;100.00;61272.81;5235163;28;20060;-75
2022/04/27 02:55:09;;;;;;;14.20;8.70;;;;;;;-150.27;100.00;61272.81;5246173;28;20056;-75
2022/04/27 02:57:40;;;;;;;11.80;9.33;;;;;;;-150.27;100.00;61272.81;5247025;28;20084;-75
2022/04/27 03:00:11;;;;;;;12.93;8.40;;;;;;;-150.27;100.00;61272.81;5245713;28;20487;-75
2022/04/27 03:02:43;;;;;;;11.13;8.27;;;;;;;-150.27;100.00;61272.81;5250567;28;20528;-75
2022/04/27 03:05:14;;;;;;;11.47;9.37;;;;;;;-150.27;100.00;61272.81;5249937;28;20083;-75
2022/04/27 03:07:45;;;;;;;14.47;9.57;;;;;;;-150.27;100.00;61272.81;5231167;28;20032;-73
2022/04/27 03:10:17;;;;;;;12.90;9.80;;;;;;;-150.27;100.00;61272.81;5250341;28;20131;-75
2022/04/27 03:12:48;;;;;;;11.27;9.17;;;;;;;-150.27;100.00;61272.81;5250169;28;20025;-75
2022/04/27 03:15:19;;;;;;;13.23;10.07;;;;;;;-150.27;100.00;61272.81;5231721;28;20041;-75
2022/04/27 03:18:16;;;;;;;12.40;9.17;;;;;;;-150.27;100.00;61272.81;5249812;28;20025;-75
2022/04/27 03:20:42;;;;;;;17.00;10.60;;;;;;;-150.27;100.00;61272.81;5250113;28;20106;-75
2022/04/27 03:23:14;;;;;;;15.83;10.53;;;;;;;-150.27;100.00;61272.81;5249773;28;20024;-75
2022/04/27 03:25:45;;;;;;;10.80;8.53;;;;;;;-150.27;100.00;61272.81;5250354;28;20017;-69
2022/04/27 03:28:16;;;;;;;12.97;8.83;;;;;;;-150.27;100.00;61272.81;5249620;28;20025;-75
2022/04/27 03:30:49;;;;;;;13.03;9.87;;;;;;;-150.27;100.00;61272.81;5230911;28;20009;-74
2022/04/27 03:33:20;;;;;;;13.27;9.37;;;;;;;-150.27;100.00;61272.81;5250154;28;20036;-76
2022/04/27 03:35:52;;;;;;;14.33;10.37;;;;;;;-150.27;100.00;61272.81;5249167;28;20478;-76
2022/04/27 03:38:23;;;;;;;14.20;9.77;;;;;;;-150.27;100.00;61272.81;5248387;28;20021;-76
2022/04/27 03:40:54;;;;;;;10.30;8.80;;;;;;;-150.27;100.00;61272.81;5249181;28;20029;-76
2022/04/27 03:43:26;;;;;;;16.23;10.77;;;;;;;-150.27;100.00;61272.81;5231877;28;20055;-76
2022/04/27 03:45:57;;;;;;;15.77;10.77;;;;;;;-150.27;100.00;61272.81;5248469;28;20036;-76
2022/04/27 03:48:28;;;;;;;11.70;9.57;;;;;;;-150.27;100.00;61272.81;5249665;28;20100;-75
2022/04/27 03:51:00;;;;;;;12.07;9.90;;;;;;;-150.27;100.00;61272.81;5249449;28;20013;-76
2022/04/27 03:53:31;;;;;;;12.93;9.37;;;;;;;-150.27;100.00;61272.81;5249227;28;20031;-76
2022/04/27 03:56:03;;;;;;;11.93;9.00;;;;;;;-150.27;100.00;61272.81;5249395;28;20035;-76
2022/04/27 03:58:34;;;;;;;14.00;9.57;;;;;;;-150.27;100.00;61272.81;5249207;28;20032;-76
2022/04/27 04:01:05;;;;;;;13.33;9.33;;;;;;;-150.27;100.00;61272.81;5248419;28;20040;-76
2022/04/27 04:03:36;;;;;;;11.67;9.33;;;;;;;-150.27;100.00;61272.81;5248768;28;20116;-76
2022/04/27 04:06:08;;;;;;;12.20;9.93;;;;;;;-150.27;100.00;61272.81;5249288;28;20688;-75
2022/04/27 04:08:39;;;;;;;11.63;9.03;;;;;;;-150.27;100.00;61272.81;5249001;28;20554;-76
2022/04/27 04:11:11;;;;;;;12.93;9.17;;;;;;;-150.27;100.00;61272.81;5248492;28;20100;-75
2022/04/27 04:13:43;;;;;;;12.43;9.60;;;;;;;-150.27;100.00;61272.81;5248687;28;20032;-75
2022/04/27 04:16:14;;;;;;;11.57;10.10;;;;;;;-150.27;100.00;61272.81;5248119;28;20059;-75
2022/04/27 04:18:45;;;;;;;14.70;10.00;;;;;;;-150.27;100.00;61272.81;5248895;28;20033;-71
2022/04/27 04:21:16;;;;;;;14.60;10.87;;;;;;;-150.27;100.00;61272.81;5248788;28;20036;-76
2022/04/27 04:23:48;;;;;;;12.47;10.10;;;;;;;-150.27;100.00;61272.81;5230551;28;20491;-75
2022/04/27 04:29:09;;;;;;;13.47;9.57;;;;;;;-150.27;100.00;61272.81;5247990;28;20036;-76
2022/04/27 04:31:40;;;;;;;12.93;9.43;;;;;;;-150.27;100.00;61272.81;5247305;28;20029;-76
2022/04/27 04:34:11;;;;;;;11.00;8.33;;;;;;;-150.27;100.00;61272.81;5230606;28;20029;-77
2022/04/27 04:36:42;;;;;;;12.27;9.77;;;;;;;-150.27;100.00;61272.81;5230887;28;20107;-76
2022/04/27 04:39:14;;;;;;;14.53;9.87;;;;;;;-150.27;100.00;61272.81;5247959;28;20040;-76
2022/04/27 04:41:45;;;;;;;13.07;9.53;;;;;;;-150.27;100.00;61272.81;5233757;28;20045;-70
2022/04/27 04:44:17;;;;;;;20.43;10.63;;;;;;;-150.27;100.00;61272.81;5248558;28;20025;-76
2022/04/27 04:46:48;;;;;;;13.90;9.90;;;;;;;-150.27;100.00;61272.81;5247970;28;20021;-75
2022/04/27 04:49:19;;;;;;;12.40;9.83;;;;;;;-150.27;100.00;61272.81;5246796;28;20027;-76
2022/04/27 04:51:51;;;;;;;13.67;9.70;;;;;;;-150.27;100.00;61272.81;5248330;28;20024;-76
2022/04/27 04:54:22;;;;;;;12.13;10.37;;;;;;;-150.27;100.00;61272.81;5248934;28;20029;-76
2022/04/27 04:56:53;;;;;;;15.27;11.07;;;;;;;-150.27;100.00;61272.81;5229369;28;20052;-77
2022/04/27 04:59:25;;;;;;;14.97;9.90;;;;;;;-150.27;100.00;61272.81;5247388;28;20420;-76
2022/04/27 05:01:56;;;;;;;12.47;10.67;;;;;;;-150.27;100.00;61272.81;5247426;28;20126;-76
2022/04/27 05:04:27;;;;;;;18.07;11.07;;;;;;;-150.27;100.00;61272.81;5230206;28;20036;-76
2022/04/27 05:06:59;;;;;;;13.33;10.93;;;;;;;-150.27;100.00;61272.81;5247186;28;20613;-76
2022/04/27 05:09:30;;;;;;;14.03;11.60;;;;;;;-150.27;100.00;61272.81;5248381;28;20032;-76
2022/04/27 05:12:01;;;;;;;15.97;10.80;;;;;;;-150.27;100.00;61272.81;5248300;28;20056;-76
2022/04/27 05:14:33;;;;;;;13.30;10.73;;;;;;;-150.27;100.00;61272.81;5246808;28;20048;-76
2022/04/27 05:17:04;;;;;;;15.23;11.90;;;;;;;-150.27;100.00;61272.81;5246212;28;20020;-75
2022/04/27 05:19:37;;;;;;;14.13;11.50;;;;;;;-150.27;100.00;61272.81;5247546;28;20060;-75
2022/04/27 05:22:08;;;;;;;18.00;11.90;;;;;;;-150.27;100.00;61272.81;5246536;28;20453;-75
2022/04/27 05:24:39;;;;;;;17.53;12.00;;;;;;;-150.27;100.00;61272.81;5247110;28;20029;-76
2022/04/27 05:27:11;;;;;;;14.00;12.20;;;;;;;-150.27;100.00;61272.81;5248097;28;20028;-77
2022/04/27 05:32:43;;;;;;;18.43;13.80;;;;;;;-150.27;100.00;61272.81;5247841;28;20033;-77
2022/04/27 05:35:14;;;;;;;17.13;14.37;;;;;;;-150.27;100.00;61272.81;5246746;28;20036;-75
2022/04/27 05:37:45;;;;;;;20.30;16.20;;;;;;;-150.27;100.00;61272.81;5247920;28;20029;-76
2022/04/27 05:40:17;;;;;;;15.97;14.37;;;;;;;-150.27;100.00;61272.81;5229099;28;20037;-77
2022/04/27 05:42:48;;;;;;;21.83;15.43;;;;;;;-150.27;100.00;61272.81;5246458;28;20114;-77
2022/04/27 05:45:19;;;;;;;19.63;15.23;;;;;;;-150.27;100.00;61272.81;5246623;28;20032;-77
2022/04/27 05:47:51;;;;;;;19.77;15.40;;;;;;;-150.27;100.00;61272.81;5228720;28;20067;-77
2022/04/27 05:50:22;;;;;;;19.57;15.80;;;;;;;-150.27;100.00;61272.81;5247383;28;20035;-77
2022/04/27 05:52:59;;;;;;;19.67;16.07;;;;;;;-150.27;100.00;61272.81;5228688;28;20060;-72
2022/04/27 05:55:31;;;;;;;19.80;14.90;;;;;;;-150.27;100.00;61272.81;5247317;28;20405;-76
2022/04/27 05:58:02;;;;;;;15.33;13.57;;;;;;;-150.27;100.00;61272.81;5246954;28;20039;-75
2022/04/27 06:00:33;;;;;;;20.40;15.23;;;;;;;-150.27;100.00;61272.81;5246352;28;20028;-77
2022/04/27 06:03:05;;;;;;;19.30;15.23;;;;;;;-150.27;100.00;61272.81;5246568;28;20044;-75
2022/04/27 06:05:36;;;;;;;17.20;13.67;;;;;;;-150.27;100.00;61272.81;5247127;28;20013;-77
2022/04/27 06:08:09;;;;;;;25.60;13.23;;;;;;;-150.27;100.00;61272.81;5247274;28;20037;-78
2022/04/27 06:10:40;;;;;;;18.67;13.43;;;;;;;-150.27;100.00;61272.81;5246816;28;20029;-75
2022/04/27 06:13:13;;;;;;;20.90;13.50;;;;;;;-150.27;100.00;61272.81;5246577;28;20074;-77
2022/04/27 06:15:44;;;;;;;16.27;12.73;;;;;;;-150.27;100.00;61272.81;5227910;28;20033;-78
2022/04/27 06:18:16;;;;;;;17.90;12.87;;;;;;;-150.27;100.00;61272.81;5247045;28;20427;-77
2022/04/27 06:20:47;;;;;;;18.53;12.57;;;;;;;-150.27;100.00;61272.81;5246371;28;20110;-75
2022/04/27 06:23:18;;;;;;;21.17;12.47;;;;;;;-150.27;100.00;61272.81;5246096;28;20052;-75
2022/04/27 06:25:50;;;;;;;13.57;11.63;;;;;;;-150.27;100.00;61272.81;5247084;28;20025;-75
2022/04/27 06:28:21;;;;;;;17.20;12.93;;;;;;;-150.27;100.00;61272.81;5245320;28;20021;-75
2022/04/27 06:30:52;;;;;;;15.93;12.60;;;;;;;-150.27;100.00;61272.81;5246988;28;20112;-75
2022/04/27 06:33:24;;;;;;;14.03;11.80;;;;;;;-150.27;100.00;61272.81;5228283;28;20029;-75
2022/04/27 06:35:55;;;;;;;14.27;11.80;;;;;;;-150.27;100.00;61272.81;5249130;28;20025;-75
2022/04/27 06:38:26;;;;;;;18.47;12.23;;;;;;;-150.27;100.00;61272.81;5249137;28;20021;-75
2022/04/27 06:40:58;;;;;;;15.77;11.13;;;;;;;-150.27;100.00;61272.81;5250805;28;20476;-76
2022/04/27 06:43:29;;;;;;;19.57;11.20;;;;;;;-150.27;100.00;61272.81;5250252;28;20039;-75
2022/04/27 06:46:01;;;;;;;14.03;10.50;;;;;;;-150.27;100.00;61272.81;5250667;28;20060;-76
2022/04/27 06:48:33;;;;;;;15.37;10.47;;;;;;;-150.27;100.00;61272.81;5250745;28;20649;-75
2022/04/27 06:51:04;;;;;;;17.60;12.60;;;;;;;-150.27;100.00;61272.81;5250183;28;20167;-76
2022/04/27 06:53:36;;;;;;;14.80;11.63;;;;;;;-150.27;100.00;61272.81;5251374;28;20037;-75
2022/04/27 06:56:08;;;;;;;17.13;11.53;;;;;;;-150.27;100.00;61272.81;5250225;28;20079;-76
2022/04/27 06:58:39;;;;;;;20.67;10.37;;;;;;;-150.27;100.00;61272.81;5231492;28;20049;-75
2022/04/27 07:01:10;;;;;;;12.93;10.23;;;;;;;-150.27;100.00;61272.81;5232674;28;20044;-75
2022/04/27 07:03:43;;;;;;;15.47;10.70;;;;;;;-150.27;100.00;61272.81;5249946;28;20049;-75
2022/04/27 07:06:14;;;;;;;13.83;10.33;;;;;;;-150.27;100.00;61272.81;5250596;28;20101;-76
2022/04/27 07:08:46;;;;;;;15.63;10.80;;;;;;;-150.27;100.00;61272.81;5249759;28;20112;-75
2022/04/27 07:11:17;;;;;;;13.93;9.80;;;;;;;-150.27;100.00;61272.81;5235378;28;20029;-77
2022/04/27 07:13:48;;;;;;;12.13;9.43;;;;;;;-150.27;100.00;61272.81;5248722;28;20587;-76
2022/04/27 07:16:20;;;;;;;17.40;10.57;;;;;;;-150.27;100.00;61272.81;5250688;28;20457;-75
2022/04/27 07:18:53;;;;;;;17.70;8.80;;;;;;;-150.27;100.00;61272.81;5248693;28;20052;-75
2022/04/27 07:21:24;;;;;;;17.63;9.40;;;;;;;-150.27;100.00;61272.81;5249975;28;20033;-76
2022/04/27 07:23:58;;;;;;;15.43;9.00;;;;;;;-150.27;100.00;61272.81;5250094;28;20466;-76
2022/04/27 07:26:30;;;;;;;14.80;9.00;;;;;;;-150.27;100.00;61272.81;5231762;28;20363;-76
2022/04/27 07:29:01;;;;;;;13.30;8.90;;;;;;;-150.27;100.00;61272.81;5249755;28;20025;-76
2022/04/27 07:31:32;;;;;;;11.10;6.93;;;;;;;-150.27;100.00;61272.81;5231661;28;20454;-76
2022/04/27 07:34:03;;;;;;;13.30;8.23;;;;;;;-150.27;100.00;61272.81;5231514;28;20037;-76
2022/04/27 07:36:35;;;;;;;10.93;6.73;;;;;;;-150.27;100.00;61272.81;5248865;28;20036;-76
2022/04/27 07:39:06;;;;;;;8.63;5.70;;;;;;;-150.27;100.00;61272.81;5249461;28;20025;-76
2022/04/27 07:41:38;;;;;;;8.70;6.47;;;;;;;-150.27;100.00;61272.81;5249458;28;20029;-76
2022/04/27 07:44:09;;;;;;;11.00;5.50;;;;;;;-150.27;100.00;61272.81;5248364;28;20043;-76
2022/04/27 07:46:40;;;;;;;11.27;5.87;;;;;;;-150.27;100.00;61272.81;5249729;28;20029;-77
2022/04/27 07:49:11;;;;;;;9.93;5.70;;;;;;;-150.27;100.00;61272.81;5249244;28;20028;-76
2022/04/27 07:51:43;;;;;;;9.07;5.10;;;;;;;-150.27;100.00;61272.81;5247998;28;20118;-76
2022/04/27 07:54:15;;;;;;;9.10;3.97;;;;;;;-150.27;100.00;61272.81;5249723;28;20545;-76
2022/04/27 07:56:46;;;;;;;6.80;3.40;;;;;;;-150.27;100.00;61272.81;5248974;28;20060;-76
2022/04/27 07:59:17;;;;;;;7.93;4.07;;;;;;;-150.27;100.00;61272.81;5240995;28;20730;-76
2022/04/27 08:01:48;;;;;;;10.50;4.73;;;;;;;-150.27;100.00;61272.81;5242104;28;20072;-76
2022/04/27 08:04:20;;;;;;;8.13;4.63;;;;;;;-150.27;100.00;61272.81;5249924;28;20033;-76
2022/04/27 08:06:51;;;;;;;8.83;4.40;;;;;;;-150.27;100.00;61272.81;5247654;28;20094;-76
2022/04/27 08:09:22;;;;;;;10.23;3.67;;;;;;;-150.27;100.00;61272.81;5249279;28;20021;-75
2022/04/27 08:11:54;;;;;;;6.17;2.43;;;;;;;-150.27;100.00;61272.81;5248714;28;20135;-76
2022/04/27 08:14:25;;;;;;;7.80;2.93;;;;;;;-150.27;100.00;61272.81;5230381;28;20029;-75
2022/04/27 08:16:58;;;;;;;6.10;2.83;;;;;;;-150.27;100.00;61272.81;5249555;28;20416;-76
2022/04/27 08:19:30;;;;;;;8.60;3.50;;;;;;;-150.27;100.00;61272.81;5248450;28;20040;-75
2022/04/27 08:22:02;;;;;;;8.30;3.47;;;;;;;-150.27;100.00;61272.81;5249854;28;20918;-76
2022/04/27 08:24:38;;;;;;;6.13;2.97;;;;;;;-150.27;100.00;61272.81;5247527;28;20021;-75
2022/04/27 08:27:09;;;;;;;4.85;2.30;;;;;;;-150.27;100.00;61272.81;5248729;28;20032;-76
2022/04/27 08:29:41;;;;;;;7.18;3.08;;;;;;;-150.27;100.00;61272.81;5247458;28;20029;-76
2022/04/27 08:32:12;;;;;;;5.03;2.90;;;;;;;-150.27;100.00;61272.81;5231268;28;20017;-76
2022/04/27 08:34:43;;;;;;;6.70;3.45;;;;;;;-150.27;100.00;61272.81;5248508;28;20028;-76
2022/04/27 08:37:14;;;;;;;8.68;4.72;;;;;;;-150.27;100.00;61272.81;5248218;28;20102;-76
2022/04/27 08:39:46;;;;;;;8.80;3.20;;;;;;;-150.27;100.00;61272.81;5249431;28;20044;-75
2022/04/27 08:42:17;;;;;;;6.28;3.50;;;;;;;-150.27;100.00;61272.81;5251625;28;20036;-76
2022/04/27 08:44:48;;;;;;;7.43;3.72;;;;;;;-150.27;100.00;61272.81;5247059;28;20059;-76
2022/04/27 08:47:23;;;;;;;6.03;3.40;;;;;;;-150.27;100.00;61272.81;5248150;28;20028;-76
2022/04/27 08:49:55;;;;;;;5.90;2.88;;;;;;;-150.27;100.00;61272.81;5248425;28;20031;-76
2022/04/27 08:52:26;;;;;;;7.25;3.60;;;;;;;-150.27;100.00;61272.81;5230571;28;20090;-76
2022/04/27 08:54:59;;;;;;;9.63;3.30;;;;;;;-150.27;100.00;61272.81;5247671;28;20025;-76
2022/04/27 08:57:30;;;;;;;7.25;2.90;;;;;;;-150.27;100.00;61272.81;5248123;28;20024;-76
2022/04/27 09:00:07;;;;;;;5.38;3.20;;;;;;;-150.27;100.00;61272.81;5246557;28;20098;-76
2022/04/27 09:02:38;;;;;;;4.72;3.00;;;;;;;-150.27;100.00;61272.81;5234250;28;20036;-76
2022/04/27 09:05:11;;;;;;;5.57;2.92;;;;;;;-150.27;100.00;61272.81;5246860;28;20029;-76
2022/04/27 09:07:50;;;;;;;5.95;3.17;;;;;;;-150.27;100.00;61272.81;5246667;28;20036;-76
2022/04/27 09:10:25;;;;;;;4.70;3.05;;;;;;;-150.27;100.00;61272.81;5219243;28;20080;-76
2022/04/27 09:12:57;;;;;;;5.18;3.13;;;;;;;-150.27;100.00;61272.81;5226787;28;20029;-75
2022/04/27 09:15:28;;;;;;;6.82;2.80;;;;;;;-150.27;100.00;61272.81;5249112;28;20040;-76
2022/04/27 09:20:59;;;;;;;7.88;3.00;;;;;;;-150.27;100.00;61272.81;5249662;28;20041;-75
2022/04/27 09:23:40;;;;;;;8.07;3.30;;;;;;;-150.27;100.00;61272.81;5247769;28;20029;-75
2022/04/27 09:26:19;;;;;;;5.70;3.40;;;;;;;-150.27;100.00;61272.81;5247347;28;20651;-76
2022/04/27 09:28:54;;;;;;;7.35;3.55;;;;;;;-150.27;100.00;61272.81;5245256;28;20056;-76
2022/04/27 09:31:32;;;;;;;5.80;2.90;;;;;;;-150.27;100.00;61272.81;5247806;28;20467;-76
2022/04/27 09:34:50;;;;;;;5.50;2.95;;;;;;;-150.27;100.00;61272.81;5247809;28;20523;-76
2022/04/27 09:37:13;;;;;;;8.30;3.03;;;;;;;-150.27;100.00;61272.81;5221850;28;20045;-76
2022/04/27 09:39:47;;;;;;;6.90;3.88;;;;;;;-150.27;100.00;61272.81;5247061;28;20669;-76
2022/04/27 09:42:29;;;;;;;;;;;;;;;-150.27;100.00;61272.81;5230326;28;20408;-76
2022/04/27 09:45:17;;;;;;;6.88;3.97;;;;;;;-150.27;100.00;61272.81;5246432;28;19952;-76
2022/04/27 09:48:04;;;;;;;5.38;3.28;;;;;;;-150.27;100.00;61272.81;5228892;28;20032;-76
2022/04/27 09:50:45;;;;;;;4.50;3.40;;;;;;;-150.27;100.00;61272.81;5247639;28;20089;-76
2022/04/27 09:53:18;;;;;;;8.23;3.95;;;;;;;-150.27;100.00;61272.81;5247600;28;20036;-76
2022/04/27 09:55:52;;;;;;;5.37;3.10;;;;;;;-150.27;100.00;61272.81;5247507;28;20043;-76
2022/04/27 09:58:25;;;;;;;;;;;;;;;-150.27;100.00;61272.81;5228120;28;20029;-75
2022/04/27 10:01:01;;;;;;;6.55;4.15;;;;;;;-150.27;100.00;61272.81;5247212;28;19913;-76
2022/04/27 10:03:35;;;;;;;6.97;4.00;;;;;;;-150.27;100.00;61272.81;5246646;28;20052;-75
2022/04/27 10:06:07;;;;;;;8.88;5.05;;;;;;;-150.27;100.00;61272.81;5247203;28;20545;-76
2022/04/27 10:08:40;;;;;;;12.77;4.13;;;;;;;-150.27;100.00;61272.81;5246868;28;20024;-76
2022/04/27 10:11:12;;;;;;;8.43;3.70;;;;;;;-150.27;100.00;61272.81;5246757;28;20056;-76
2022/04/27 10:13:44;;;;;;;8.77;3.83;;;;;;;-150.27;100.00;61272.81;5228211;28;20033;-76
2022/04/27 10:16:17;;;;;;;5.88;4.28;;;;;;;-150.27;100.00;61272.81;5246990;28;20079;-75
2022/04/27 10:18:49;;;;;;;5.95;4.47;;;;;;;-150.27;100.00;61272.81;5246614;28;20095;-75
2022/04/27 10:21:56;;;;;;;8.45;4.78;;;;;;;-150.27;100.00;61272.81;5245967;28;20017;-75
2022/04/27 10:24:33;;;;;;;8.07;4.43;;;;;;;-150.27;100.00;61272.81;5247072;28;20029;-75
2022/04/27 10:27:14;;;;;;;6.53;4.60;;;;;;;-150.27;100.00;61272.81;5247248;28;20017;-76
2022/04/27 10:29:50;;;;;;;5.35;4.50;;;;;;;-150.27;100.00;61272.81;5247832;28;20060;-75
2022/04/27 10:32:48;;;;;;;7.00;4.47;;;;;;;-150.27;100.00;61272.81;5246767;28;20666;-76
2022/04/27 10:35:30;;;;;;;9.38;5.18;;;;;;;-150.27;100.00;61272.81;5227733;28;20455;-75
2022/04/27 10:38:05;;;;;;;10.55;5.75;;;;;;;-150.27;100.00;61272.81;5246615;28;20039;-76
2022/04/27 10:40:43;;;;;;;7.15;5.05;;;;;;;-150.27;100.00;61272.81;5247183;28;20021;-76
2022/04/27 10:43:42;;;;;;;6.78;5.15;;;;;;;-150.27;100.00;61272.81;5245702;28;20029;-76
2022/04/27 10:46:35;;;;;;;11.05;4.95;;;;;;;-150.27;100.00;61272.81;5246408;28;20025;-74
2022/04/27 10:49:26;;;;;;;10.67;5.03;;;;;;;-150.27;100.00;61272.81;5228262;28;20037;-75
2022/04/27 10:52:08;;;;;;;9.60;4.38;;;;;;;-150.27;100.00;61272.81;5246970;28;20283;-75
2022/04/27 10:54:41;;;;;;;7.55;5.05;;;;;;;-150.27;100.00;61272.81;5247072;28;20036;-75
2022/04/27 10:57:15;;;;;;;6.38;4.40;;;;;;;-150.27;100.00;61272.81;5228989;28;20586;-77
2022/04/27 10:59:49;;;;;;;6.30;4.43;;;;;;;-150.27;100.00;61272.81;5245159;28;20032;-76
2022/04/27 11:02:40;;;;;;;6.78;5.00;;;;;;;-150.27;100.00;61272.81;5228800;28;20053;-76
2022/04/27 11:05:11;;;;;;;11.60;5.18;;;;;;;-150.27;100.00;61272.81;5246182;28;20021;-76
2022/04/27 11:07:54;;;;;;;7.03;4.82;;;;;;;-150.27;100.00;61272.81;5246288;28;20321;-76
2022/04/27 11:10:25;;;;;;;6.88;5.28;;;;;;;-150.27;100.00;61272.81;5246494;28;20052;-76
2022/04/27 11:12:57;;;;;;;8.15;5.13;;;;;;;-150.27;100.00;61272.81;5226780;28;20029;-76
2022/04/27 11:15:28;;;;;;;9.63;4.65;;;;;;;-150.27;100.00;61272.81;5246772;28;20467;-76
2022/04/27 11:18:01;;;;;;;9.18;5.43;;;;;;;-150.27;100.00;61272.81;5246461;28;20032;-76
2022/04/27 11:20:34;;;;;;;7.32;5.22;;;;;;;-150.27;100.00;61272.81;5246432;28;20029;-75
2022/04/27 11:23:20;;;;;;;7.50;4.90;;;;;;;-150.27;100.00;61272.81;5250036;28;20033;-75
2022/04/27 11:25:52;;;;;;;7.05;4.82;;;;;;;-150.27;100.00;61272.81;5232305;28;20785;-75
2022/04/27 11:28:23;;;;;;;8.10;4.68;;;;;;;-150.27;100.00;61272.81;5247507;28;20028;-73
2022/04/27 11:30:57;;;;;;;6.90;4.88;;;;;;;-150.27;100.00;61272.81;5249482;28;20082;-75
2022/04/27 11:33:28;;;;;;;9.40;5.07;;;;;;;-150.27;100.00;61272.81;5248930;28;20020;-77
2022/04/27 11:35:59;;;;;;;11.32;5.40;;;;;;;-150.27;100.00;61272.81;5249242;28;20106;-75
2022/04/27 11:38:37;;;;;;;7.15;4.60;;;;;;;-150.27;100.00;61272.81;5249902;28;20124;-75
2022/04/27 11:41:20;;;;;;;6.50;4.63;;;;;;;-150.27;100.00;61272.81;5231726;28;20037;-75